Aeroporto :
LOGIN :

Iscrizione | Disclaimer

   EN    FR    IT 

 










Sommario :    VFR   VFR Marginale   IFR   IFR Intensivo   IFR Molto Intensivo
Visibilità : 
Base nubi : 
>= 8 km
>= 3000ft
5 / 8 km
1000 / 3000 ft
1500m / 5 km
500 / 1000 ft
800 / 1500m
200 / 500 ft
< 800m
< 200 ft
Simboli :   Temporali  Nebbia  Neve Forte  Precipitazioni Forti  Vento > 20 kt
SIGMETs :   Varie  Temporali  Ghiacco  Turbolenza  Onda orograficha  Ceneri Vulcaniche






- Altitudine del aeroporto : 405 ft
- Codice IATA : ODH


EGVO - RAF Odiham

ULTIMO METAR :
  • 300920Z 21010KT CAVOK 13/10 Q1008 NOSIG RMK BLU BLU

METARs OBSOLETI :
  • 300850Z 21011KT CAVOK 12/09 Q1008 NOSIG RMK BLU BLU
  • 300820Z AUTO 22011KT 9999 NCD 13/10 Q1008
  • 300750Z AUTO 21007KT 9000 // NCD 11/11 Q1008
  • 300720Z AUTO 21004KT 6000 REFG NCD 08/08 Q1009
  • 300650Z AUTO 17002KT 1700 FG SCT001/// 05/05 Q1009

TAF TAF EGVO
Valido dal 30 a 09 ore il 30 a 21 ore UTC


300731Z 3009/3021 20006KT 9999 FEW025
TEMPO 3009/3014 SCT020
BECMG 3012/3015 21015G26KT
TEMPO 3014/3021 22025G35KT 5000 RA BKN010
PROB30
TEMPO 3016/3021 3000 +RA SCT006



MetMap, La meteo Aeronautica in un colpo d'occhio ! - Copyright ORBIFLY Dicembre 2007 - Disclaimer

ORBIFLY MET'MAP TEAM :

Programmazione e sviluppo : Alexandra Zaïnal
Concezione : Baudouin d'Aumeries
Supporto tecnico e logistico : Manuel Goepfert
Aiuto : Marc-Olivier Méhu
Aiuto per la traduzione : Arnaldo La Scala




FONTI E CREDITI :

   NOAA